sensor_id;sensor_type;location;lat;lon;timestamp;P1;durP1;ratioP1;P2;durP2;ratioP2
41952;SDS011;63613;28.200;112.870;2023-04-03T00:01:28;14.52;;;12.45;;
41952;SDS011;63613;28.200;112.870;2023-04-03T00:03:55;14.40;;;12.55;;
41952;SDS011;63613;28.200;112.870;2023-04-03T00:06:22;15.45;;;13.45;;
41952;SDS011;63613;28.200;112.870;2023-04-03T00:08:51;15.05;;;13.15;;
41952;SDS011;63613;28.200;112.870;2023-04-03T00:11:18;14.98;;;13.40;;
41952;SDS011;63613;28.200;112.870;2023-04-03T00:13:46;16.55;;;13.52;;
41952;SDS011;63613;28.200;112.870;2023-04-03T00:16:12;14.27;;;12.57;;
41952;SDS011;63613;28.200;112.870;2023-04-03T00:18:39;14.85;;;13.07;;
41952;SDS011;63613;28.200;112.870;2023-04-03T00:21:06;15.77;;;13.02;;
41952;SDS011;63613;28.200;112.870;2023-04-03T00:23:37;14.50;;;12.88;;
41952;SDS011;63613;28.200;112.870;2023-04-03T00:26:23;14.82;;;12.43;;
41952;SDS011;63613;28.200;112.870;2023-04-03T00:28:50;15.32;;;12.73;;
41952;SDS011;63613;28.200;112.870;2023-04-03T00:31:17;14.52;;;12.45;;
41952;SDS011;63613;28.200;112.870;2023-04-03T00:33:47;15.68;;;14.00;;
41952;SDS011;63613;28.200;112.870;2023-04-03T00:36:15;14.55;;;12.50;;
41952;SDS011;63613;28.200;112.870;2023-04-03T00:38:41;15.23;;;13.05;;
41952;SDS011;63613;28.200;112.870;2023-04-03T00:41:08;15.75;;;12.70;;
41952;SDS011;63613;28.200;112.870;2023-04-03T00:43:36;17.63;;;14.30;;
41952;SDS011;63613;28.200;112.870;2023-04-03T00:46:03;14.57;;;13.07;;
41952;SDS011;63613;28.200;112.870;2023-04-03T00:48:38;17.13;;;13.18;;
41952;SDS011;63613;28.200;112.870;2023-04-03T00:51:07;16.80;;;14.38;;
41952;SDS011;63613;28.200;112.870;2023-04-03T00:53:40;16.27;;;14.35;;
41952;SDS011;63613;28.200;112.870;2023-04-03T00:56:13;17.95;;;14.18;;
41952;SDS011;63613;28.200;112.870;2023-04-03T00:58:46;16.58;;;14.45;;
41952;SDS011;63613;28.200;112.870;2023-04-03T01:01:20;15.35;;;13.02;;
41952;SDS011;63613;28.200;112.870;2023-04-03T01:03:49;14.65;;;12.80;;
41952;SDS011;63613;28.200;112.870;2023-04-03T01:06:16;16.63;;;13.68;;
41952;SDS011;63613;28.200;112.870;2023-04-03T01:09:04;17.17;;;13.23;;
41952;SDS011;63613;28.200;112.870;2023-04-03T01:11:32;15.38;;;13.07;;
41952;SDS011;63613;28.200;112.870;2023-04-03T01:13:58;17.38;;;14.20;;
41952;SDS011;63613;28.200;112.870;2023-04-03T01:16:27;16.75;;;13.50;;
41952;SDS011;63613;28.200;112.870;2023-04-03T01:19:14;14.63;;;12.65;;
41952;SDS011;63613;28.200;112.870;2023-04-03T01:21:57;14.75;;;11.10;;
41952;SDS011;63613;28.200;112.870;2023-04-03T01:24:42;13.90;;;11.80;;
41952;SDS011;63613;28.200;112.870;2023-04-03T01:27:09;15.57;;;11.63;;
41952;SDS011;63613;28.200;112.870;2023-04-03T01:29:37;14.15;;;11.50;;
41952;SDS011;63613;28.200;112.870;2023-04-03T01:32:24;14.15;;;12.13;;
41952;SDS011;63613;28.200;112.870;2023-04-03T01:34:51;14.30;;;11.93;;
41952;SDS011;63613;28.200;112.870;2023-04-03T01:37:18;16.95;;;12.35;;
41952;SDS011;63613;28.200;112.870;2023-04-03T01:39:45;14.27;;;12.45;;
41952;SDS011;63613;28.200;112.870;2023-04-03T01:42:11;14.73;;;11.68;;
41952;SDS011;63613;28.200;112.870;2023-04-03T01:44:38;13.20;;;11.18;;
41952;SDS011;63613;28.200;112.870;2023-04-03T01:47:06;15.82;;;13.02;;
41952;SDS011;63613;28.200;112.870;2023-04-03T01:49:33;17.95;;;13.40;;
41952;SDS011;63613;28.200;112.870;2023-04-03T01:51:59;15.85;;;13.43;;
41952;SDS011;63613;28.200;112.870;2023-04-03T01:54:26;15.68;;;12.73;;
41952;SDS011;63613;28.200;112.870;2023-04-03T01:56:53;15.75;;;13.02;;
41952;SDS011;63613;28.200;112.870;2023-04-03T01:59:20;17.75;;;14.07;;
41952;SDS011;63613;28.200;112.870;2023-04-03T02:01:47;16.58;;;13.63;;
41952;SDS011;63613;28.200;112.870;2023-04-03T02:04:14;17.08;;;14.05;;
41952;SDS011;63613;28.200;112.870;2023-04-03T02:06:40;16.92;;;13.82;;
41952;SDS011;63613;28.200;112.870;2023-04-03T02:09:07;17.70;;;13.80;;
41952;SDS011;63613;28.200;112.870;2023-04-03T02:11:54;16.38;;;13.80;;
41952;SDS011;63613;28.200;112.870;2023-04-03T02:14:21;16.98;;;13.77;;
41952;SDS011;63613;28.200;112.870;2023-04-03T02:16:49;17.80;;;14.13;;
41952;SDS011;63613;28.200;112.870;2023-04-03T02:19:16;15.27;;;13.35;;
41952;SDS011;63613;28.200;112.870;2023-04-03T02:21:45;15.95;;;13.75;;
41952;SDS011;63613;28.200;112.870;2023-04-03T02:24:12;16.23;;;14.10;;
41952;SDS011;63613;28.200;112.870;2023-04-03T02:26:39;18.35;;;14.18;;
41952;SDS011;63613;28.200;112.870;2023-04-03T02:29:06;19.42;;;15.18;;
41952;SDS011;63613;28.200;112.870;2023-04-03T02:31:35;17.88;;;14.43;;
41952;SDS011;63613;28.200;112.870;2023-04-03T02:34:02;19.42;;;16.38;;
41952;SDS011;63613;28.200;112.870;2023-04-03T02:36:29;18.15;;;16.13;;
41952;SDS011;63613;28.200;112.870;2023-04-03T02:38:58;19.42;;;16.00;;
41952;SDS011;63613;28.200;112.870;2023-04-03T02:41:25;19.50;;;15.57;;
41952;SDS011;63613;28.200;112.870;2023-04-03T02:43:58;21.85;;;16.17;;
41952;SDS011;63613;28.200;112.870;2023-04-03T02:46:25;20.65;;;16.05;;
41952;SDS011;63613;28.200;112.870;2023-04-03T02:48:52;20.92;;;16.83;;
41952;SDS011;63613;28.200;112.870;2023-04-03T02:51:19;21.05;;;15.90;;
41952;SDS011;63613;28.200;112.870;2023-04-03T02:53:46;21.00;;;16.10;;
41952;SDS011;63613;28.200;112.870;2023-04-03T02:56:13;26.50;;;17.05;;
41952;SDS011;63613;28.200;112.870;2023-04-03T02:58:40;23.58;;;17.52;;
41952;SDS011;63613;28.200;112.870;2023-04-03T03:01:06;21.85;;;17.08;;
41952;SDS011;63613;28.200;112.870;2023-04-03T03:03:33;24.30;;;18.70;;
41952;SDS011;63613;28.200;112.870;2023-04-03T03:06:04;26.33;;;18.58;;
41952;SDS011;63613;28.200;112.870;2023-04-03T03:08:32;25.55;;;18.55;;
41952;SDS011;63613;28.200;112.870;2023-04-03T03:10:59;22.98;;;16.88;;
41952;SDS011;63613;28.200;112.870;2023-04-03T03:13:26;24.85;;;18.13;;
41952;SDS011;63613;28.200;112.870;2023-04-03T03:16:14;26.67;;;19.52;;
41952;SDS011;63613;28.200;112.870;2023-04-03T03:18:40;29.42;;;19.02;;
41952;SDS011;63613;28.200;112.870;2023-04-03T03:21:08;26.10;;;19.38;;
41952;SDS011;63613;28.200;112.870;2023-04-03T03:23:36;28.10;;;20.17;;
41952;SDS011;63613;28.200;112.870;2023-04-03T03:26:04;27.58;;;21.88;;
41952;SDS011;63613;28.200;112.870;2023-04-03T03:28:33;29.23;;;20.75;;
41952;SDS011;63613;28.200;112.870;2023-04-03T03:31:02;32.78;;;24.33;;
41952;SDS011;63613;28.200;112.870;2023-04-03T03:33:29;30.00;;;22.25;;
41952;SDS011;63613;28.200;112.870;2023-04-03T03:35:56;34.22;;;23.17;;
41952;SDS011;63613;28.200;112.870;2023-04-03T03:38:23;34.13;;;23.83;;
41952;SDS011;63613;28.200;112.870;2023-04-03T03:40:50;30.98;;;25.27;;
41952;SDS011;63613;28.200;112.870;2023-04-03T03:43:18;29.35;;;22.27;;
41952;SDS011;63613;28.200;112.870;2023-04-03T03:45:46;29.65;;;23.08;;
41952;SDS011;63613;28.200;112.870;2023-04-03T03:48:17;27.70;;;23.35;;
41952;SDS011;63613;28.200;112.870;2023-04-03T03:50:45;31.25;;;24.35;;
41952;SDS011;63613;28.200;112.870;2023-04-03T03:53:12;32.63;;;26.20;;
41952;SDS011;63613;28.200;112.870;2023-04-03T03:55:39;34.83;;;26.05;;
41952;SDS011;63613;28.200;112.870;2023-04-03T03:58:06;29.45;;;23.98;;
41952;SDS011;63613;28.200;112.870;2023-04-03T04:00:32;31.23;;;23.90;;
41952;SDS011;63613;28.200;112.870;2023-04-03T04:03:02;30.92;;;25.75;;
41952;SDS011;63613;28.200;112.870;2023-04-03T04:05:29;28.08;;;24.83;;
41952;SDS011;63613;28.200;112.870;2023-04-03T04:07:57;29.40;;;24.73;;
41952;SDS011;63613;28.200;112.870;2023-04-03T04:10:24;31.90;;;25.60;;
41952;SDS011;63613;28.200;112.870;2023-04-03T04:12:51;32.05;;;26.38;;
41952;SDS011;63613;28.200;112.870;2023-04-03T04:15:17;30.83;;;25.90;;
41952;SDS011;63613;28.200;112.870;2023-04-03T04:17:47;30.58;;;26.55;;
41952;SDS011;63613;28.200;112.870;2023-04-03T04:20:14;30.98;;;25.90;;
41952;SDS011;63613;28.200;112.870;2023-04-03T04:22:41;32.38;;;26.30;;
41952;SDS011;63613;28.200;112.870;2023-04-03T04:25:07;30.30;;;24.45;;
41952;SDS011;63613;28.200;112.870;2023-04-03T04:27:35;33.65;;;26.33;;
41952;SDS011;63613;28.200;112.870;2023-04-03T04:30:03;30.38;;;25.33;;
41952;SDS011;63613;28.200;112.870;2023-04-03T04:32:30;31.92;;;26.27;;
41952;SDS011;63613;28.200;112.870;2023-04-03T04:34:59;30.65;;;25.58;;
41952;SDS011;63613;28.200;112.870;2023-04-03T04:37:28;34.42;;;28.80;;
41952;SDS011;63613;28.200;112.870;2023-04-03T04:39:55;39.08;;;32.03;;
41952;SDS011;63613;28.200;112.870;2023-04-03T04:42:22;36.03;;;30.83;;
41952;SDS011;63613;28.200;112.870;2023-04-03T04:44:50;32.58;;;27.83;;
41952;SDS011;63613;28.200;112.870;2023-04-03T04:47:17;30.27;;;26.65;;
41952;SDS011;63613;28.200;112.870;2023-04-03T04:49:47;29.95;;;26.55;;
41952;SDS011;63613;28.200;112.870;2023-04-03T04:52:14;29.35;;;25.20;;
41952;SDS011;63613;28.200;112.870;2023-04-03T04:54:41;28.20;;;24.30;;
41952;SDS011;63613;28.200;112.870;2023-04-03T04:57:07;32.72;;;25.05;;
41952;SDS011;63613;28.200;112.870;2023-04-03T04:59:37;30.98;;;24.60;;
41952;SDS011;63613;28.200;112.870;2023-04-03T05:02:08;28.88;;;25.70;;
41952;SDS011;63613;28.200;112.870;2023-04-03T05:04:55;28.90;;;25.42;;
41952;SDS011;63613;28.200;112.870;2023-04-03T05:07:25;28.00;;;25.05;;
41952;SDS011;63613;28.200;112.870;2023-04-03T05:09:52;29.98;;;26.38;;
41952;SDS011;63613;28.200;112.870;2023-04-03T05:12:19;33.40;;;25.42;;
41952;SDS011;63613;28.200;112.870;2023-04-03T05:14:49;29.67;;;24.33;;
41952;SDS011;63613;28.200;112.870;2023-04-03T05:17:16;29.48;;;23.25;;
41952;SDS011;63613;28.200;112.870;2023-04-03T05:19:42;26.73;;;23.10;;
41952;SDS011;63613;28.200;112.870;2023-04-03T05:22:09;26.00;;;22.48;;
41952;SDS011;63613;28.200;112.870;2023-04-03T05:24:39;28.08;;;22.98;;
41952;SDS011;63613;28.200;112.870;2023-04-03T05:27:07;25.73;;;21.80;;
41952;SDS011;63613;28.200;112.870;2023-04-03T05:29:33;27.65;;;22.50;;
41952;SDS011;63613;28.200;112.870;2023-04-03T05:32:00;24.05;;;21.48;;
41952;SDS011;63613;28.200;112.870;2023-04-03T05:34:27;25.25;;;22.50;;
41952;SDS011;63613;28.200;112.870;2023-04-03T05:36:54;25.23;;;21.58;;
41952;SDS011;63613;28.200;112.870;2023-04-03T05:39:21;23.95;;;21.08;;
41952;SDS011;63613;28.200;112.870;2023-04-03T05:41:50;25.25;;;20.90;;
41952;SDS011;63613;28.200;112.870;2023-04-03T05:44:17;24.50;;;21.15;;
41952;SDS011;63613;28.200;112.870;2023-04-03T05:46:44;22.23;;;19.77;;
41952;SDS011;63613;28.200;112.870;2023-04-03T05:49:11;22.13;;;19.45;;
41952;SDS011;63613;28.200;112.870;2023-04-03T05:51:38;21.10;;;19.00;;
41952;SDS011;63613;28.200;112.870;2023-04-03T05:56:41;22.38;;;19.48;;
41952;SDS011;63613;28.200;112.870;2023-04-03T05:59:09;23.20;;;20.58;;
41952;SDS011;63613;28.200;112.870;2023-04-03T06:01:36;21.85;;;19.15;;
41952;SDS011;63613;28.200;112.870;2023-04-03T06:04:24;22.27;;;19.95;;
41952;SDS011;63613;28.200;112.870;2023-04-03T06:06:56;22.15;;;19.80;;
41952;SDS011;63613;28.200;112.870;2023-04-03T06:09:28;21.48;;;19.17;;
41952;SDS011;63613;28.200;112.870;2023-04-03T06:11:55;21.30;;;18.88;;
41952;SDS011;63613;28.200;112.870;2023-04-03T06:14:24;21.73;;;19.40;;
41952;SDS011;63613;28.200;112.870;2023-04-03T06:16:52;20.95;;;18.67;;
41952;SDS011;63613;28.200;112.870;2023-04-03T06:19:24;19.70;;;17.73;;
41952;SDS011;63613;28.200;112.870;2023-04-03T06:21:52;20.95;;;18.75;;
41952;SDS011;63613;28.200;112.870;2023-04-03T06:24:19;22.55;;;19.27;;
41952;SDS011;63613;28.200;112.870;2023-04-03T06:26:48;22.70;;;20.25;;
41952;SDS011;63613;28.200;112.870;2023-04-03T06:29:17;19.70;;;17.60;;
41952;SDS011;63613;28.200;112.870;2023-04-03T06:31:45;20.38;;;18.27;;
41952;SDS011;63613;28.200;112.870;2023-04-03T06:34:12;20.55;;;18.50;;
41952;SDS011;63613;28.200;112.870;2023-04-03T06:36:40;20.80;;;18.60;;
41952;SDS011;63613;28.200;112.870;2023-04-03T06:39:09;20.13;;;18.00;;
41952;SDS011;63613;28.200;112.870;2023-04-03T06:41:41;20.27;;;18.15;;
41952;SDS011;63613;28.200;112.870;2023-04-03T06:44:09;21.52;;;17.90;;
41952;SDS011;63613;28.200;112.870;2023-04-03T06:46:55;22.05;;;19.08;;
41952;SDS011;63613;28.200;112.870;2023-04-03T06:49:22;21.60;;;18.38;;
41952;SDS011;63613;28.200;112.870;2023-04-03T06:51:50;19.42;;;17.35;;
41952;SDS011;63613;28.200;112.870;2023-04-03T06:54:17;24.88;;;18.98;;
41952;SDS011;63613;28.200;112.870;2023-04-03T06:56:44;19.52;;;17.48;;
41952;SDS011;63613;28.200;112.870;2023-04-03T06:59:11;19.13;;;17.15;;
41952;SDS011;63613;28.200;112.870;2023-04-03T07:01:42;19.35;;;17.33;;
41952;SDS011;63613;28.200;112.870;2023-04-03T07:04:09;19.75;;;17.75;;
41952;SDS011;63613;28.200;112.870;2023-04-03T07:06:36;19.17;;;16.73;;
41952;SDS011;63613;28.200;112.870;2023-04-03T07:09:03;19.40;;;17.38;;
41952;SDS011;63613;28.200;112.870;2023-04-03T07:11:31;20.15;;;17.52;;
41952;SDS011;63613;28.200;112.870;2023-04-03T07:13:57;20.85;;;18.02;;
41952;SDS011;63613;28.200;112.870;2023-04-03T07:16:27;19.00;;;17.08;;
41952;SDS011;63613;28.200;112.870;2023-04-03T07:19:15;18.52;;;16.63;;
41952;SDS011;63613;28.200;112.870;2023-04-03T07:21:44;18.95;;;16.92;;
41952;SDS011;63613;28.200;112.870;2023-04-03T07:24:11;20.05;;;17.77;;
41952;SDS011;63613;28.200;112.870;2023-04-03T07:26:38;20.20;;;17.95;;
41952;SDS011;63613;28.200;112.870;2023-04-03T07:29:04;19.90;;;17.33;;
41952;SDS011;63613;28.200;112.870;2023-04-03T07:31:31;21.00;;;17.70;;
41952;SDS011;63613;28.200;112.870;2023-04-03T07:34:00;19.02;;;17.02;;
41952;SDS011;63613;28.200;112.870;2023-04-03T07:36:27;20.08;;;18.08;;
41952;SDS011;63613;28.200;112.870;2023-04-03T07:38:54;17.27;;;15.55;;
41952;SDS011;63613;28.200;112.870;2023-04-03T07:41:21;17.80;;;15.90;;
41952;SDS011;63613;28.200;112.870;2023-04-03T07:43:48;19.50;;;17.50;;
41952;SDS011;63613;28.200;112.870;2023-04-03T07:46:15;19.40;;;17.25;;
41952;SDS011;63613;28.200;112.870;2023-04-03T07:48:43;19.92;;;17.10;;
41952;SDS011;63613;28.200;112.870;2023-04-03T07:51:10;19.30;;;17.25;;
41952;SDS011;63613;28.200;112.870;2023-04-03T07:53:37;18.13;;;16.25;;
41952;SDS011;63613;28.200;112.870;2023-04-03T07:56:24;18.10;;;16.20;;
41952;SDS011;63613;28.200;112.870;2023-04-03T07:58:52;19.05;;;17.25;;
41952;SDS011;63613;28.200;112.870;2023-04-03T08:01:26;19.83;;;17.73;;
41952;SDS011;63613;28.200;112.870;2023-04-03T08:03:54;19.00;;;17.08;;
41952;SDS011;63613;28.200;112.870;2023-04-03T08:06:20;19.80;;;16.05;;
41952;SDS011;63613;28.200;112.870;2023-04-03T08:08:47;17.05;;;15.35;;
41952;SDS011;63613;28.200;112.870;2023-04-03T08:11:14;18.33;;;16.58;;
41952;SDS011;63613;28.200;112.870;2023-04-03T08:13:41;17.70;;;15.93;;
41952;SDS011;63613;28.200;112.870;2023-04-03T08:16:12;17.52;;;15.43;;
41952;SDS011;63613;28.200;112.870;2023-04-03T08:18:43;17.85;;;16.10;;
41952;SDS011;63613;28.200;112.870;2023-04-03T08:21:10;16.75;;;14.48;;
41952;SDS011;63613;28.200;112.870;2023-04-03T08:23:39;16.58;;;14.95;;
41952;SDS011;63613;28.200;112.870;2023-04-03T08:26:09;16.67;;;14.88;;
41952;SDS011;63613;28.200;112.870;2023-04-03T08:28:38;17.70;;;15.95;;
41952;SDS011;63613;28.200;112.870;2023-04-03T08:31:25;16.98;;;15.20;;
41952;SDS011;63613;28.200;112.870;2023-04-03T08:33:53;16.95;;;15.23;;
41952;SDS011;63613;28.200;112.870;2023-04-03T08:36:27;16.50;;;14.30;;
41952;SDS011;63613;28.200;112.870;2023-04-03T08:38:55;15.13;;;13.63;;
41952;SDS011;63613;28.200;112.870;2023-04-03T08:49:53;16.83;;;15.13;;
41952;SDS011;63613;28.200;112.870;2023-04-03T08:58:03;16.90;;;15.15;;
41952;SDS011;63613;28.200;112.870;2023-04-03T09:01:07;17.00;;;15.35;;
41952;SDS011;63613;28.200;112.870;2023-04-03T09:03:40;17.92;;;16.13;;
41952;SDS011;63613;28.200;112.870;2023-04-03T09:11:26;18.73;;;15.73;;
41952;SDS011;63613;28.200;112.870;2023-04-03T09:17:00;16.15;;;14.55;;
41952;SDS011;63613;28.200;112.870;2023-04-03T09:19:41;17.17;;;15.23;;
41952;SDS011;63613;28.200;112.870;2023-04-03T09:22:20;16.83;;;15.05;;
41952;SDS011;63613;28.200;112.870;2023-04-03T09:24:55;15.82;;;14.15;;
41952;SDS011;63613;28.200;112.870;2023-04-03T09:29:52;18.55;;;14.73;;
41952;SDS011;63613;28.200;112.870;2023-04-03T09:34:55;19.30;;;14.60;;
41952;SDS011;63613;28.200;112.870;2023-04-03T09:37:41;16.38;;;14.63;;
41952;SDS011;63613;28.200;112.870;2023-04-03T09:40:29;16.02;;;14.43;;
41952;SDS011;63613;28.200;112.870;2023-04-03T09:45:46;15.85;;;14.25;;
41952;SDS011;63613;28.200;112.870;2023-04-03T09:53:40;15.38;;;13.85;;
41952;SDS011;63613;28.200;112.870;2023-04-03T10:01:28;16.67;;;14.88;;
41952;SDS011;63613;28.200;112.870;2023-04-03T10:06:44;16.88;;;14.35;;
41952;SDS011;63613;28.200;112.870;2023-04-03T10:09:23;16.25;;;14.55;;
41952;SDS011;63613;28.200;112.870;2023-04-03T10:12:11;16.38;;;14.40;;
41952;SDS011;63613;28.200;112.870;2023-04-03T10:14:40;15.63;;;14.13;;
41952;SDS011;63613;28.200;112.870;2023-04-03T10:17:49;15.52;;;13.88;;
41952;SDS011;63613;28.200;112.870;2023-04-03T10:20:32;16.83;;;14.15;;
41952;SDS011;63613;28.200;112.870;2023-04-03T10:25:40;15.75;;;14.18;;
41952;SDS011;63613;28.200;112.870;2023-04-03T10:38:57;16.45;;;14.75;;
41952;SDS011;63613;28.200;112.870;2023-04-03T10:41:56;17.08;;;15.27;;
41952;SDS011;63613;28.200;112.870;2023-04-03T10:47:34;16.95;;;15.13;;
41952;SDS011;63613;28.200;112.870;2023-04-03T10:53:12;15.77;;;14.15;;
41952;SDS011;63613;28.200;112.870;2023-04-03T10:58:45;17.55;;;14.23;;
41952;SDS011;63613;28.200;112.870;2023-04-03T11:01:39;16.98;;;14.38;;
41952;SDS011;63613;28.200;112.870;2023-04-03T11:04:31;14.57;;;12.93;;
41952;SDS011;63613;28.200;112.870;2023-04-03T11:07:03;15.63;;;14.10;;
41952;SDS011;63613;28.200;112.870;2023-04-03T11:09:37;14.82;;;13.32;;
41952;SDS011;63613;28.200;112.870;2023-04-03T11:12:24;14.73;;;12.85;;
41952;SDS011;63613;28.200;112.870;2023-04-03T11:14:59;16.30;;;14.13;;
41952;SDS011;63613;28.200;112.870;2023-04-03T11:20:26;17.05;;;15.07;;
41952;SDS011;63613;28.200;112.870;2023-04-03T11:23:02;14.80;;;13.23;;
41952;SDS011;63613;28.200;112.870;2023-04-03T11:28:01;14.50;;;13.00;;
41952;SDS011;63613;28.200;112.870;2023-04-03T11:36:25;15.40;;;13.30;;
41952;SDS011;63613;28.200;112.870;2023-04-03T11:39:00;14.98;;;13.38;;
41952;SDS011;63613;28.200;112.870;2023-04-03T11:41:35;14.90;;;13.00;;
41952;SDS011;63613;28.200;112.870;2023-04-03T11:44:23;14.52;;;13.02;;
41952;SDS011;63613;28.200;112.870;2023-04-03T11:47:03;13.30;;;12.00;;
41952;SDS011;63613;28.200;112.870;2023-04-03T12:16:27;14.80;;;12.18;;
41952;SDS011;63613;28.200;112.870;2023-04-03T12:24:26;13.23;;;11.90;;
41952;SDS011;63613;28.200;112.870;2023-04-03T12:29:32;13.20;;;11.73;;
41952;SDS011;63613;28.200;112.870;2023-04-03T12:36:08;15.82;;;13.05;;
41952;SDS011;63613;28.200;112.870;2023-04-03T12:41:57;13.07;;;11.77;;
41952;SDS011;63613;28.200;112.870;2023-04-03T12:45:27;13.32;;;12.02;;
41952;SDS011;63613;28.200;112.870;2023-04-03T12:47:35;12.70;;;11.48;;
41952;SDS011;63613;28.200;112.870;2023-04-03T12:50:45;12.32;;;11.07;;
41952;SDS011;63613;28.200;112.870;2023-04-03T12:53:04;13.18;;;11.63;;
41952;SDS011;63613;28.200;112.870;2023-04-03T12:55:54;13.85;;;12.43;;
41952;SDS011;63613;28.200;112.870;2023-04-03T12:59:14;12.60;;;11.30;;
41952;SDS011;63613;28.200;112.870;2023-04-03T13:01:43;13.63;;;11.45;;
41952;SDS011;63613;28.200;112.870;2023-04-03T13:04:19;14.02;;;12.05;;
41952;SDS011;63613;28.200;112.870;2023-04-03T13:06:51;14.18;;;12.00;;
41952;SDS011;63613;28.200;112.870;2023-04-03T13:09:25;13.10;;;11.77;;
41952;SDS011;63613;28.200;112.870;2023-04-03T13:12:15;13.05;;;11.25;;
41952;SDS011;63613;28.200;112.870;2023-04-03T13:14:54;12.75;;;11.45;;
41952;SDS011;63613;28.200;112.870;2023-04-03T13:17:25;12.52;;;10.70;;
41952;SDS011;63613;28.200;112.870;2023-04-03T13:19:53;12.60;;;11.15;;
41952;SDS011;63613;28.200;112.870;2023-04-03T13:22:25;14.05;;;12.13;;
41952;SDS011;63613;28.200;112.870;2023-04-03T13:24:53;12.32;;;10.80;;
41952;SDS011;63613;28.200;112.870;2023-04-03T13:27:23;14.15;;;11.23;;
41952;SDS011;63613;28.200;112.870;2023-04-03T13:29:53;14.23;;;11.65;;
41952;SDS011;63613;28.200;112.870;2023-04-03T13:32:24;12.02;;;10.82;;
41952;SDS011;63613;28.200;112.870;2023-04-03T13:34:56;11.55;;;10.32;;
41952;SDS011;63613;28.200;112.870;2023-04-03T13:42:26;12.75;;;11.55;;
41952;SDS011;63613;28.200;112.870;2023-04-03T13:48:09;12.07;;;10.85;;
41952;SDS011;63613;28.200;112.870;2023-04-03T13:50:57;11.30;;;10.20;;
41952;SDS011;63613;28.200;112.870;2023-04-03T13:53:24;11.35;;;10.25;;
41952;SDS011;63613;28.200;112.870;2023-04-03T13:56:09;11.27;;;10.15;;
41952;SDS011;63613;28.200;112.870;2023-04-03T14:04:25;11.52;;;10.43;;
41952;SDS011;63613;28.200;112.870;2023-04-03T14:07:16;11.85;;;10.68;;
41952;SDS011;63613;28.200;112.870;2023-04-03T14:09:45;10.80;;;9.65;;
41952;SDS011;63613;28.200;112.870;2023-04-03T14:12:15;11.43;;;10.23;;
41952;SDS011;63613;28.200;112.870;2023-04-03T14:14:46;11.80;;;9.90;;
41952;SDS011;63613;28.200;112.870;2023-04-03T14:17:17;11.35;;;10.15;;
41952;SDS011;63613;28.200;112.870;2023-04-03T14:19:46;11.18;;;10.07;;
41952;SDS011;63613;28.200;112.870;2023-04-03T14:22:22;12.02;;;10.30;;
41952;SDS011;63613;28.200;112.870;2023-04-03T14:24:53;11.55;;;10.13;;
41952;SDS011;63613;28.200;112.870;2023-04-03T14:27:32;10.43;;;9.52;;
41952;SDS011;63613;28.200;112.870;2023-04-03T14:30:01;11.60;;;10.43;;
41952;SDS011;63613;28.200;112.870;2023-04-03T14:32:32;10.75;;;9.65;;
41952;SDS011;63613;28.200;112.870;2023-04-03T14:34:59;12.25;;;10.95;;
41952;SDS011;63613;28.200;112.870;2023-04-03T14:37:27;11.18;;;9.93;;
41952;SDS011;63613;28.200;112.870;2023-04-03T14:39:57;11.18;;;10.07;;
41952;SDS011;63613;28.200;112.870;2023-04-03T14:42:28;10.43;;;9.43;;
41952;SDS011;63613;28.200;112.870;2023-04-03T14:44:58;11.45;;;10.35;;
41952;SDS011;63613;28.200;112.870;2023-04-03T14:47:29;10.73;;;9.63;;
41952;SDS011;63613;28.200;112.870;2023-04-03T14:50:01;11.55;;;10.30;;
41952;SDS011;63613;28.200;112.870;2023-04-03T14:52:31;12.65;;;10.23;;
41952;SDS011;63613;28.200;112.870;2023-04-03T14:55:01;11.23;;;10.10;;
41952;SDS011;63613;28.200;112.870;2023-04-03T14:57:31;11.25;;;10.05;;
41952;SDS011;63613;28.200;112.870;2023-04-03T15:00:02;11.40;;;10.30;;
41952;SDS011;63613;28.200;112.870;2023-04-03T15:05:02;10.85;;;9.80;;
41952;SDS011;63613;28.200;112.870;2023-04-03T15:07:38;10.35;;;9.35;;
41952;SDS011;63613;28.200;112.870;2023-04-03T15:12:49;11.30;;;10.15;;
41952;SDS011;63613;28.200;112.870;2023-04-03T15:15:42;12.35;;;10.20;;
41952;SDS011;63613;28.200;112.870;2023-04-03T15:18:10;10.20;;;9.05;;
41952;SDS011;63613;28.200;112.870;2023-04-03T15:20:54;8.73;;;7.82;;
41952;SDS011;63613;28.200;112.870;2023-04-03T15:23:21;10.13;;;9.13;;
41952;SDS011;63613;28.200;112.870;2023-04-03T15:25:51;8.43;;;7.55;;
41952;SDS011;63613;28.200;112.870;2023-04-03T15:28:22;8.68;;;7.50;;
41952;SDS011;63613;28.200;112.870;2023-04-03T15:30:59;8.68;;;7.47;;
41952;SDS011;63613;28.200;112.870;2023-04-03T15:33:26;8.95;;;7.63;;
41952;SDS011;63613;28.200;112.870;2023-04-03T15:35:56;7.85;;;7.15;;
41952;SDS011;63613;28.200;112.870;2023-04-03T15:38:24;8.68;;;7.38;;
41952;SDS011;63613;28.200;112.870;2023-04-03T15:40:51;8.35;;;7.00;;
41952;SDS011;63613;28.200;112.870;2023-04-03T15:43:19;8.73;;;7.47;;
41952;SDS011;63613;28.200;112.870;2023-04-03T15:45:46;7.82;;;7.03;;
41952;SDS011;63613;28.200;112.870;2023-04-03T15:48:17;7.85;;;7.07;;
41952;SDS011;63613;28.200;112.870;2023-04-03T15:51:05;10.95;;;6.55;;
41952;SDS011;63613;28.200;112.870;2023-04-03T15:53:32;7.28;;;6.47;;
41952;SDS011;63613;28.200;112.870;2023-04-03T15:55:59;7.55;;;6.30;;
41952;SDS011;63613;28.200;112.870;2023-04-03T15:58:47;6.45;;;5.72;;
41952;SDS011;63613;28.200;112.870;2023-04-03T16:01:14;7.13;;;6.22;;
41952;SDS011;63613;28.200;112.870;2023-04-03T16:03:41;6.72;;;5.80;;
41952;SDS011;63613;28.200;112.870;2023-04-03T16:06:12;7.40;;;6.70;;
41952;SDS011;63613;28.200;112.870;2023-04-03T16:08:46;7.35;;;5.90;;
41952;SDS011;63613;28.200;112.870;2023-04-03T16:11:14;6.40;;;5.72;;
41952;SDS011;63613;28.200;112.870;2023-04-03T16:13:43;6.97;;;6.38;;
41952;SDS011;63613;28.200;112.870;2023-04-03T16:16:10;6.60;;;5.75;;
41952;SDS011;63613;28.200;112.870;2023-04-03T16:18:37;5.97;;;5.38;;
41952;SDS011;63613;28.200;112.870;2023-04-03T16:21:11;6.47;;;5.72;;
41952;SDS011;63613;28.200;112.870;2023-04-03T16:23:43;5.78;;;5.20;;
41952;SDS011;63613;28.200;112.870;2023-04-03T16:26:11;5.50;;;4.85;;
41952;SDS011;63613;28.200;112.870;2023-04-03T16:28:39;5.00;;;4.50;;
41952;SDS011;63613;28.200;112.870;2023-04-03T16:31:06;5.72;;;5.13;;
41952;SDS011;63613;28.200;112.870;2023-04-03T16:33:36;5.85;;;5.05;;
41952;SDS011;63613;28.200;112.870;2023-04-03T16:36:03;5.75;;;5.03;;
41952;SDS011;63613;28.200;112.870;2023-04-03T16:38:31;6.30;;;4.90;;
41952;SDS011;63613;28.200;112.870;2023-04-03T16:40:57;5.75;;;5.05;;
41952;SDS011;63613;28.200;112.870;2023-04-03T16:43:26;5.75;;;5.15;;